sensor_id;sensor_type;location;lat;lon;timestamp;P1;durP1;ratioP1;P2;durP2;ratioP2
26906;SDS011;14472;56.880;16.658;2022-07-03T00:00:33;2.88;;;1.80;;
26906;SDS011;14472;56.880;16.658;2022-07-03T00:02:59;2.42;;;1.67;;
26906;SDS011;14472;56.880;16.658;2022-07-03T00:05:25;3.28;;;1.77;;
26906;SDS011;14472;56.880;16.658;2022-07-03T00:07:50;2.78;;;1.92;;
26906;SDS011;14472;56.880;16.658;2022-07-03T00:10:16;5.95;;;2.08;;
26906;SDS011;14472;56.880;16.658;2022-07-03T00:12:42;2.45;;;1.90;;
26906;SDS011;14472;56.880;16.658;2022-07-03T00:15:08;3.05;;;1.83;;
26906;SDS011;14472;56.880;16.658;2022-07-03T00:17:34;3.45;;;1.98;;
26906;SDS011;14472;56.880;16.658;2022-07-03T00:20:00;1.90;;;1.75;;
26906;SDS011;14472;56.880;16.658;2022-07-03T00:22:26;3.58;;;1.95;;
26906;SDS011;14472;56.880;16.658;2022-07-03T00:25:04;7.15;;;2.00;;
26906;SDS011;14472;56.880;16.658;2022-07-03T00:27:32;2.30;;;1.98;;
26906;SDS011;14472;56.880;16.658;2022-07-03T00:29:59;6.53;;;2.40;;
26906;SDS011;14472;56.880;16.658;2022-07-03T00:32:26;2.47;;;1.70;;
26906;SDS011;14472;56.880;16.658;2022-07-03T00:34:54;3.38;;;1.77;;
26906;SDS011;14472;56.880;16.658;2022-07-03T00:37:21;2.95;;;2.13;;
26906;SDS011;14472;56.880;16.658;2022-07-03T00:39:48;3.15;;;1.90;;
26906;SDS011;14472;56.880;16.658;2022-07-03T00:42:14;3.80;;;1.88;;
26906;SDS011;14472;56.880;16.658;2022-07-03T00:44:45;4.95;;;1.77;;
26906;SDS011;14472;56.880;16.658;2022-07-03T00:47:13;3.08;;;2.00;;
26906;SDS011;14472;56.880;16.658;2022-07-03T00:49:43;4.43;;;2.03;;
26906;SDS011;14472;56.880;16.658;2022-07-03T00:52:11;3.38;;;1.90;;
26906;SDS011;14472;56.880;16.658;2022-07-03T00:54:42;5.50;;;2.17;;
26906;SDS011;14472;56.880;16.658;2022-07-03T00:57:13;3.33;;;1.77;;
26906;SDS011;14472;56.880;16.658;2022-07-03T00:59:40;4.45;;;2.08;;
26906;SDS011;14472;56.880;16.658;2022-07-03T01:02:08;3.78;;;1.88;;
26906;SDS011;14472;56.880;16.658;2022-07-03T01:04:45;2.03;;;1.83;;
26906;SDS011;14472;56.880;16.658;2022-07-03T01:21:04;1.92;;;1.80;;
26906;SDS011;14472;56.880;16.658;2022-07-03T01:26:38;4.35;;;1.95;;
26906;SDS011;14472;56.880;16.658;2022-07-03T01:29:07;3.65;;;1.75;;
26906;SDS011;14472;56.880;16.658;2022-07-03T01:31:38;3.55;;;2.05;;
26906;SDS011;14472;56.880;16.658;2022-07-03T01:34:06;2.70;;;1.73;;
26906;SDS011;14472;56.880;16.658;2022-07-03T01:36:38;4.78;;;1.92;;
26906;SDS011;14472;56.880;16.658;2022-07-03T01:39:06;3.17;;;1.83;;
26906;SDS011;14472;56.880;16.658;2022-07-03T01:41:35;2.00;;;1.50;;
26906;SDS011;14472;56.880;16.658;2022-07-03T01:44:02;1.90;;;1.63;;
26906;SDS011;14472;56.880;16.658;2022-07-03T01:46:31;3.03;;;1.67;;
26906;SDS011;14472;56.880;16.658;2022-07-03T01:48:58;4.13;;;1.60;;
26906;SDS011;14472;56.880;16.658;2022-07-03T01:51:25;3.35;;;1.45;;
26906;SDS011;14472;56.880;16.658;2022-07-03T01:53:52;2.72;;;1.60;;
26906;SDS011;14472;56.880;16.658;2022-07-03T01:56:19;4.05;;;1.50;;
26906;SDS011;14472;56.880;16.658;2022-07-03T01:58:47;2.75;;;1.63;;
26906;SDS011;14472;56.880;16.658;2022-07-03T02:01:17;3.20;;;1.65;;
26906;SDS011;14472;56.880;16.658;2022-07-03T02:03:50;7.30;;;2.00;;
26906;SDS011;14472;56.880;16.658;2022-07-03T02:06:42;2.28;;;1.40;;
26906;SDS011;14472;56.880;16.658;2022-07-03T02:09:13;4.85;;;1.80;;
26906;SDS011;14472;56.880;16.658;2022-07-03T02:11:43;2.28;;;1.73;;
26906;SDS011;14472;56.880;16.658;2022-07-03T02:14:16;4.13;;;1.70;;
26906;SDS011;14472;56.880;16.658;2022-07-03T02:20:14;2.00;;;1.45;;
26906;SDS011;14472;56.880;16.658;2022-07-03T02:25:09;2.10;;;1.65;;
26906;SDS011;14472;56.880;16.658;2022-07-03T02:27:44;2.55;;;1.85;;
26906;SDS011;14472;56.880;16.658;2022-07-03T02:30:20;2.08;;;1.75;;
26906;SDS011;14472;56.880;16.658;2022-07-03T02:32:52;3.08;;;1.80;;
26906;SDS011;14472;56.880;16.658;2022-07-03T02:43:18;2.22;;;1.80;;
26906;SDS011;14472;56.880;16.658;2022-07-03T02:46:35;4.70;;;2.35;;
26906;SDS011;14472;56.880;16.658;2022-07-03T02:51:44;2.45;;;1.75;;
26906;SDS011;14472;56.880;16.658;2022-07-03T02:54:15;3.83;;;1.60;;
26906;SDS011;14472;56.880;16.658;2022-07-03T03:04:46;2.25;;;1.50;;
26906;SDS011;14472;56.880;16.658;2022-07-03T03:07:25;3.75;;;2.28;;
26906;SDS011;14472;56.880;16.658;2022-07-03T03:09:58;4.53;;;2.70;;
26906;SDS011;14472;56.880;16.658;2022-07-03T03:12:29;4.50;;;2.47;;
26906;SDS011;14472;56.880;16.658;2022-07-03T03:15:01;3.35;;;1.77;;
26906;SDS011;14472;56.880;16.658;2022-07-03T03:17:29;2.97;;;1.73;;
26906;SDS011;14472;56.880;16.658;2022-07-03T03:20:06;3.72;;;2.00;;
26906;SDS011;14472;56.880;16.658;2022-07-03T03:22:39;4.20;;;1.80;;
26906;SDS011;14472;56.880;16.658;2022-07-03T03:25:15;3.17;;;1.83;;
26906;SDS011;14472;56.880;16.658;2022-07-03T03:27:41;2.25;;;1.55;;
26906;SDS011;14472;56.880;16.658;2022-07-03T03:30:07;1.90;;;1.60;;
26906;SDS011;14472;56.880;16.658;2022-07-03T03:32:34;3.67;;;1.80;;
26906;SDS011;14472;56.880;16.658;2022-07-03T03:35:01;3.55;;;1.80;;
26906;SDS011;14472;56.880;16.658;2022-07-03T03:37:27;1.83;;;1.60;;
26906;SDS011;14472;56.880;16.658;2022-07-03T03:39:55;5.45;;;2.25;;
26906;SDS011;14472;56.880;16.658;2022-07-03T03:42:21;2.97;;;1.80;;
26906;SDS011;14472;56.880;16.658;2022-07-03T03:44:47;5.68;;;1.75;;
26906;SDS011;14472;56.880;16.658;2022-07-03T03:47:13;2.65;;;1.70;;
26906;SDS011;14472;56.880;16.658;2022-07-03T03:49:39;2.35;;;1.70;;
26906;SDS011;14472;56.880;16.658;2022-07-03T03:52:04;4.53;;;1.90;;
26906;SDS011;14472;56.880;16.658;2022-07-03T03:54:31;4.22;;;1.70;;
26906;SDS011;14472;56.880;16.658;2022-07-03T03:56:57;2.90;;;1.90;;
26906;SDS011;14472;56.880;16.658;2022-07-03T03:59:22;3.00;;;2.00;;
26906;SDS011;14472;56.880;16.658;2022-07-03T04:01:48;3.85;;;2.58;;
26906;SDS011;14472;56.880;16.658;2022-07-03T04:04:14;2.42;;;1.70;;
26906;SDS011;14472;56.880;16.658;2022-07-03T04:06:43;3.00;;;1.80;;
26906;SDS011;14472;56.880;16.658;2022-07-03T04:09:09;2.83;;;1.70;;
26906;SDS011;14472;56.880;16.658;2022-07-03T04:11:35;2.42;;;1.60;;
26906;SDS011;14472;56.880;16.658;2022-07-03T04:14:00;1.98;;;1.60;;
26906;SDS011;14472;56.880;16.658;2022-07-03T04:16:27;2.92;;;1.70;;
26906;SDS011;14472;56.880;16.658;2022-07-03T04:18:53;1.98;;;1.70;;
26906;SDS011;14472;56.880;16.658;2022-07-03T04:21:18;3.55;;;2.03;;
26906;SDS011;14472;56.880;16.658;2022-07-03T04:23:44;2.25;;;1.63;;
26906;SDS011;14472;56.880;16.658;2022-07-03T04:26:10;2.45;;;1.70;;
26906;SDS011;14472;56.880;16.658;2022-07-03T04:28:35;4.50;;;1.73;;
26906;SDS011;14472;56.880;16.658;2022-07-03T04:31:01;1.65;;;1.55;;
26906;SDS011;14472;56.880;16.658;2022-07-03T04:33:27;3.63;;;1.95;;
26906;SDS011;14472;56.880;16.658;2022-07-03T04:35:53;1.77;;;1.42;;
26906;SDS011;14472;56.880;16.658;2022-07-03T04:38:18;4.32;;;1.67;;
26906;SDS011;14472;56.880;16.658;2022-07-03T04:40:44;2.92;;;1.63;;
26906;SDS011;14472;56.880;16.658;2022-07-03T04:43:11;2.10;;;1.50;;
26906;SDS011;14472;56.880;16.658;2022-07-03T04:45:37;7.50;;;1.60;;
26906;SDS011;14472;56.880;16.658;2022-07-03T04:48:02;3.60;;;1.63;;
26906;SDS011;14472;56.880;16.658;2022-07-03T04:50:28;2.85;;;1.70;;
26906;SDS011;14472;56.880;16.658;2022-07-03T04:52:54;2.58;;;1.50;;
26906;SDS011;14472;56.880;16.658;2022-07-03T04:55:20;2.00;;;1.60;;
26906;SDS011;14472;56.880;16.658;2022-07-03T04:57:45;2.72;;;1.60;;
26906;SDS011;14472;56.880;16.658;2022-07-03T05:00:11;2.50;;;1.58;;
26906;SDS011;14472;56.880;16.658;2022-07-03T05:02:37;2.95;;;1.50;;
26906;SDS011;14472;56.880;16.658;2022-07-03T05:05:03;2.30;;;1.63;;
26906;SDS011;14472;56.880;16.658;2022-07-03T05:07:29;3.55;;;1.92;;
26906;SDS011;14472;56.880;16.658;2022-07-03T05:09:55;4.10;;;1.48;;
26906;SDS011;14472;56.880;16.658;2022-07-03T05:12:20;1.70;;;1.42;;
26906;SDS011;14472;56.880;16.658;2022-07-03T05:14:46;2.70;;;1.63;;
26906;SDS011;14472;56.880;16.658;2022-07-03T05:17:12;2.33;;;1.48;;
26906;SDS011;14472;56.880;16.658;2022-07-03T05:19:38;3.53;;;1.55;;
26906;SDS011;14472;56.880;16.658;2022-07-03T05:22:03;2.25;;;1.60;;
26906;SDS011;14472;56.880;16.658;2022-07-03T05:24:29;2.47;;;1.63;;
26906;SDS011;14472;56.880;16.658;2022-07-03T05:26:55;3.88;;;1.58;;
26906;SDS011;14472;56.880;16.658;2022-07-03T05:29:21;5.32;;;1.52;;
26906;SDS011;14472;56.880;16.658;2022-07-03T05:31:46;2.63;;;1.52;;
26906;SDS011;14472;56.880;16.658;2022-07-03T05:34:12;2.17;;;1.55;;
26906;SDS011;14472;56.880;16.658;2022-07-03T05:36:38;2.42;;;1.67;;
26906;SDS011;14472;56.880;16.658;2022-07-03T05:39:03;2.40;;;1.67;;
26906;SDS011;14472;56.880;16.658;2022-07-03T05:41:47;2.28;;;1.60;;
26906;SDS011;14472;56.880;16.658;2022-07-03T05:44:13;3.67;;;1.42;;
26906;SDS011;14472;56.880;16.658;2022-07-03T05:46:39;3.20;;;1.55;;
26906;SDS011;14472;56.880;16.658;2022-07-03T05:49:04;3.03;;;1.20;;
26906;SDS011;14472;56.880;16.658;2022-07-03T05:51:30;2.67;;;1.45;;
26906;SDS011;14472;56.880;16.658;2022-07-03T05:53:56;1.83;;;1.50;;
26906;SDS011;14472;56.880;16.658;2022-07-03T05:56:22;2.75;;;1.30;;
26906;SDS011;14472;56.880;16.658;2022-07-03T05:58:49;2.05;;;1.20;;
26906;SDS011;14472;56.880;16.658;2022-07-03T06:01:15;1.30;;;1.20;;
26906;SDS011;14472;56.880;16.658;2022-07-03T06:03:41;3.72;;;1.23;;
26906;SDS011;14472;56.880;16.658;2022-07-03T06:06:07;3.53;;;1.30;;
26906;SDS011;14472;56.880;16.658;2022-07-03T06:08:32;2.28;;;1.40;;
26906;SDS011;14472;56.880;16.658;2022-07-03T06:10:58;1.35;;;1.20;;
26906;SDS011;14472;56.880;16.658;2022-07-03T06:13:24;2.33;;;1.30;;
26906;SDS011;14472;56.880;16.658;2022-07-03T06:15:49;4.20;;;1.48;;
26906;SDS011;14472;56.880;16.658;2022-07-03T06:18:15;2.35;;;1.30;;
26906;SDS011;14472;56.880;16.658;2022-07-03T06:20:41;1.88;;;1.25;;
26906;SDS011;14472;56.880;16.658;2022-07-03T06:23:06;2.40;;;1.40;;
26906;SDS011;14472;56.880;16.658;2022-07-03T06:25:32;2.75;;;1.38;;
26906;SDS011;14472;56.880;16.658;2022-07-03T06:27:58;1.42;;;1.17;;
26906;SDS011;14472;56.880;16.658;2022-07-03T06:30:23;4.35;;;1.50;;
26906;SDS011;14472;56.880;16.658;2022-07-03T06:32:49;3.03;;;1.30;;
26906;SDS011;14472;56.880;16.658;2022-07-03T06:35:15;3.13;;;1.38;;
26906;SDS011;14472;56.880;16.658;2022-07-03T06:37:40;1.65;;;1.17;;
26906;SDS011;14472;56.880;16.658;2022-07-03T06:40:06;2.03;;;1.00;;
26906;SDS011;14472;56.880;16.658;2022-07-03T06:42:33;2.65;;;1.10;;
26906;SDS011;14472;56.880;16.658;2022-07-03T06:44:58;2.38;;;1.17;;
26906;SDS011;14472;56.880;16.658;2022-07-03T06:47:24;2.15;;;1.33;;
26906;SDS011;14472;56.880;16.658;2022-07-03T06:49:50;2.17;;;1.17;;
26906;SDS011;14472;56.880;16.658;2022-07-03T06:52:16;3.10;;;1.10;;
26906;SDS011;14472;56.880;16.658;2022-07-03T06:54:42;2.33;;;1.00;;
26906;SDS011;14472;56.880;16.658;2022-07-03T06:57:09;2.90;;;1.20;;
26906;SDS011;14472;56.880;16.658;2022-07-03T06:59:36;2.08;;;1.00;;
26906;SDS011;14472;56.880;16.658;2022-07-03T07:02:01;2.88;;;1.02;;
26906;SDS011;14472;56.880;16.658;2022-07-03T07:04:27;1.48;;;0.90;;
26906;SDS011;14472;56.880;16.658;2022-07-03T07:06:53;3.25;;;0.98;;
26906;SDS011;14472;56.880;16.658;2022-07-03T07:09:19;0.95;;;0.90;;
26906;SDS011;14472;56.880;16.658;2022-07-03T07:11:44;2.90;;;1.10;;
26906;SDS011;14472;56.880;16.658;2022-07-03T07:14:10;2.33;;;1.27;;
26906;SDS011;14472;56.880;16.658;2022-07-03T07:16:36;1.95;;;1.20;;
26906;SDS011;14472;56.880;16.658;2022-07-03T07:19:01;2.22;;;1.08;;
26906;SDS011;14472;56.880;16.658;2022-07-03T07:21:27;2.03;;;1.10;;
26906;SDS011;14472;56.880;16.658;2022-07-03T07:23:53;1.10;;;1.00;;
26906;SDS011;14472;56.880;16.658;2022-07-03T07:26:19;2.25;;;1.05;;
26906;SDS011;14472;56.880;16.658;2022-07-03T07:28:45;4.40;;;1.27;;
26906;SDS011;14472;56.880;16.658;2022-07-03T07:31:11;2.40;;;1.13;;
26906;SDS011;14472;56.880;16.658;2022-07-03T07:33:37;1.63;;;1.00;;
26906;SDS011;14472;56.880;16.658;2022-07-03T07:36:03;2.30;;;0.98;;
26906;SDS011;14472;56.880;16.658;2022-07-03T07:38:29;4.18;;;0.95;;
26906;SDS011;14472;56.880;16.658;2022-07-03T07:40:54;2.47;;;0.90;;
26906;SDS011;14472;56.880;16.658;2022-07-03T07:43:20;3.42;;;0.90;;
26906;SDS011;14472;56.880;16.658;2022-07-03T07:45:46;2.88;;;1.13;;
26906;SDS011;14472;56.880;16.658;2022-07-03T07:48:12;2.30;;;0.90;;
26906;SDS011;14472;56.880;16.658;2022-07-03T07:50:37;2.17;;;1.00;;
26906;SDS011;14472;56.880;16.658;2022-07-03T07:53:03;1.80;;;0.90;;
26906;SDS011;14472;56.880;16.658;2022-07-03T07:55:29;1.65;;;0.80;;
26906;SDS011;14472;56.880;16.658;2022-07-03T07:57:54;2.67;;;0.98;;
26906;SDS011;14472;56.880;16.658;2022-07-03T08:00:20;1.25;;;0.80;;
26906;SDS011;14472;56.880;16.658;2022-07-03T08:02:47;2.75;;;1.00;;
26906;SDS011;14472;56.880;16.658;2022-07-03T08:05:32;3.33;;;0.90;;
26906;SDS011;14472;56.880;16.658;2022-07-03T08:08:14;2.38;;;1.20;;
26906;SDS011;14472;56.880;16.658;2022-07-03T08:10:44;1.95;;;0.90;;
26906;SDS011;14472;56.880;16.658;2022-07-03T08:13:11;1.85;;;0.90;;
26906;SDS011;14472;56.880;16.658;2022-07-03T08:15:38;2.55;;;0.98;;
26906;SDS011;14472;56.880;16.658;2022-07-03T08:18:05;1.77;;;0.90;;
26906;SDS011;14472;56.880;16.658;2022-07-03T08:20:31;2.45;;;1.25;;
26906;SDS011;14472;56.880;16.658;2022-07-03T08:22:57;1.90;;;0.80;;
26906;SDS011;14472;56.880;16.658;2022-07-03T08:25:24;1.92;;;0.90;;
26906;SDS011;14472;56.880;16.658;2022-07-03T08:27:50;1.92;;;1.15;;
26906;SDS011;14472;56.880;16.658;2022-07-03T08:30:16;2.28;;;1.35;;
26906;SDS011;14472;56.880;16.658;2022-07-03T08:32:49;1.08;;;0.68;;
26906;SDS011;14472;56.880;16.658;2022-07-03T08:35:17;2.88;;;1.67;;
26906;SDS011;14472;56.880;16.658;2022-07-03T08:37:43;2.08;;;0.80;;
26906;SDS011;14472;56.880;16.658;2022-07-03T08:40:11;1.65;;;0.90;;
26906;SDS011;14472;56.880;16.658;2022-07-03T08:42:38;1.85;;;0.88;;
26906;SDS011;14472;56.880;16.658;2022-07-03T08:45:29;3.10;;;0.70;;
26906;SDS011;14472;56.880;16.658;2022-07-03T08:47:58;1.65;;;0.80;;
26906;SDS011;14472;56.880;16.658;2022-07-03T08:50:24;1.80;;;1.00;;
26906;SDS011;14472;56.880;16.658;2022-07-03T08:52:50;1.17;;;0.80;;
26906;SDS011;14472;56.880;16.658;2022-07-03T08:55:17;2.63;;;1.00;;
26906;SDS011;14472;56.880;16.658;2022-07-03T08:57:44;3.35;;;1.10;;
26906;SDS011;14472;56.880;16.658;2022-07-03T09:00:12;2.35;;;0.90;;
26906;SDS011;14472;56.880;16.658;2022-07-03T09:02:40;3.75;;;1.08;;
26906;SDS011;14472;56.880;16.658;2022-07-03T09:05:08;1.70;;;0.82;;
26906;SDS011;14472;56.880;16.658;2022-07-03T09:07:36;1.50;;;0.70;;
26906;SDS011;14472;56.880;16.658;2022-07-03T09:10:04;2.50;;;0.90;;
26906;SDS011;14472;56.880;16.658;2022-07-03T09:12:31;2.50;;;1.33;;
26906;SDS011;14472;56.880;16.658;2022-07-03T09:14:58;3.60;;;1.08;;
26906;SDS011;14472;56.880;16.658;2022-07-03T09:17:24;2.88;;;0.80;;
26906;SDS011;14472;56.880;16.658;2022-07-03T09:19:50;3.35;;;0.90;;
26906;SDS011;14472;56.880;16.658;2022-07-03T09:22:23;2.97;;;0.90;;
26906;SDS011;14472;56.880;16.658;2022-07-03T09:24:50;1.50;;;0.80;;
26906;SDS011;14472;56.880;16.658;2022-07-03T09:27:17;1.38;;;0.80;;
26906;SDS011;14472;56.880;16.658;2022-07-03T09:30:07;3.22;;;1.00;;
26906;SDS011;14472;56.880;16.658;2022-07-03T09:32:45;1.17;;;0.80;;
26906;SDS011;14472;56.880;16.658;2022-07-03T09:35:14;1.58;;;0.82;;
26906;SDS011;14472;56.880;16.658;2022-07-03T09:37:54;2.35;;;0.82;;
26906;SDS011;14472;56.880;16.658;2022-07-03T09:40:23;3.65;;;0.90;;
26906;SDS011;14472;56.880;16.658;2022-07-03T09:42:56;2.15;;;0.88;;
26906;SDS011;14472;56.880;16.658;2022-07-03T09:45:23;2.08;;;0.80;;
26906;SDS011;14472;56.880;16.658;2022-07-03T09:47:49;1.30;;;0.80;;
26906;SDS011;14472;56.880;16.658;2022-07-03T09:50:15;2.13;;;0.82;;
26906;SDS011;14472;56.880;16.658;2022-07-03T09:52:44;2.78;;;1.05;;
26906;SDS011;14472;56.880;16.658;2022-07-03T09:57:39;2.03;;;0.90;;
26906;SDS011;14472;56.880;16.658;2022-07-03T10:02:54;2.53;;;1.00;;
26906;SDS011;14472;56.880;16.658;2022-07-03T10:05:22;1.33;;;0.90;;
26906;SDS011;14472;56.880;16.658;2022-07-03T10:08:00;2.60;;;1.15;;
26906;SDS011;14472;56.880;16.658;2022-07-03T10:10:31;1.55;;;0.85;;
26906;SDS011;14472;56.880;16.658;2022-07-03T10:12:59;2.13;;;0.82;;
26906;SDS011;14472;56.880;16.658;2022-07-03T10:15:27;1.77;;;1.00;;
26906;SDS011;14472;56.880;16.658;2022-07-03T10:17:55;1.77;;;0.80;;
26906;SDS011;14472;56.880;16.658;2022-07-03T10:20:29;1.42;;;1.00;;
26906;SDS011;14472;56.880;16.658;2022-07-03T10:22:59;1.73;;;1.00;;
26906;SDS011;14472;56.880;16.658;2022-07-03T10:25:25;3.25;;;0.82;;
26906;SDS011;14472;56.880;16.658;2022-07-03T10:27:51;2.47;;;1.00;;
26906;SDS011;14472;56.880;16.658;2022-07-03T10:30:21;3.72;;;0.98;;
26906;SDS011;14472;56.880;16.658;2022-07-03T10:32:49;4.10;;;0.90;;
26906;SDS011;14472;56.880;16.658;2022-07-03T10:35:20;2.28;;;0.90;;
26906;SDS011;14472;56.880;16.658;2022-07-03T10:38:03;1.75;;;0.70;;
26906;SDS011;14472;56.880;16.658;2022-07-03T10:43:46;2.30;;;1.00;;
26906;SDS011;14472;56.880;16.658;2022-07-03T10:46:31;2.95;;;0.95;;
26906;SDS011;14472;56.880;16.658;2022-07-03T10:48:58;2.08;;;0.90;;
26906;SDS011;14472;56.880;16.658;2022-07-03T10:51:24;1.40;;;0.90;;
26906;SDS011;14472;56.880;16.658;2022-07-03T10:54:11;2.65;;;0.93;;
26906;SDS011;14472;56.880;16.658;2022-07-03T11:07:24;1.38;;;0.90;;
26906;SDS011;14472;56.880;16.658;2022-07-03T11:12:53;2.65;;;0.93;;
26906;SDS011;14472;56.880;16.658;2022-07-03T11:15:29;3.00;;;1.00;;
26906;SDS011;14472;56.880;16.658;2022-07-03T11:23:27;1.48;;;0.80;;
26906;SDS011;14472;56.880;16.658;2022-07-03T11:25:59;2.75;;;1.10;;
26906;SDS011;14472;56.880;16.658;2022-07-03T11:36:11;1.10;;;0.80;;
26906;SDS011;14472;56.880;16.658;2022-07-03T11:38:39;2.30;;;0.90;;
26906;SDS011;14472;56.880;16.658;2022-07-03T11:41:07;1.60;;;1.02;;
26906;SDS011;14472;56.880;16.658;2022-07-03T11:43:34;2.17;;;1.23;;
26906;SDS011;14472;56.880;16.658;2022-07-03T11:46:00;3.15;;;1.10;;
26906;SDS011;14472;56.880;16.658;2022-07-03T11:48:27;0.93;;;0.70;;
26906;SDS011;14472;56.880;16.658;2022-07-03T11:50:58;1.10;;;0.77;;
26906;SDS011;14472;56.880;16.658;2022-07-03T11:53:27;1.00;;;0.60;;
26906;SDS011;14472;56.880;16.658;2022-07-03T11:58:50;1.25;;;0.60;;
26906;SDS011;14472;56.880;16.658;2022-07-03T12:03:53;1.77;;;0.70;;
26906;SDS011;14472;56.880;16.658;2022-07-03T12:06:27;1.90;;;0.80;;
26906;SDS011;14472;56.880;16.658;2022-07-03T12:09:13;2.15;;;0.80;;
26906;SDS011;14472;56.880;16.658;2022-07-03T12:11:42;2.33;;;0.70;;
26906;SDS011;14472;56.880;16.658;2022-07-03T12:14:34;2.83;;;0.90;;
26906;SDS011;14472;56.880;16.658;2022-07-03T12:17:00;1.00;;;0.73;;
26906;SDS011;14472;56.880;16.658;2022-07-03T12:19:25;1.35;;;0.70;;
26906;SDS011;14472;56.880;16.658;2022-07-03T12:21:51;1.92;;;0.90;;
26906;SDS011;14472;56.880;16.658;2022-07-03T12:24:17;0.63;;;0.55;;
26906;SDS011;14472;56.880;16.658;2022-07-03T12:26:42;1.83;;;0.73;;
26906;SDS011;14472;56.880;16.658;2022-07-03T12:29:09;1.13;;;0.90;;
26906;SDS011;14472;56.880;16.658;2022-07-03T12:31:43;1.23;;;0.60;;
26906;SDS011;14472;56.880;16.658;2022-07-03T12:34:13;2.28;;;0.88;;
26906;SDS011;14472;56.880;16.658;2022-07-03T12:36:40;1.48;;;0.70;;
26906;SDS011;14472;56.880;16.658;2022-07-03T12:39:23;1.30;;;0.90;;
26906;SDS011;14472;56.880;16.658;2022-07-03T12:41:49;1.17;;;0.80;;
26906;SDS011;14472;56.880;16.658;2022-07-03T12:44:15;1.33;;;0.73;;
26906;SDS011;14472;56.880;16.658;2022-07-03T12:46:45;1.30;;;0.70;;
26906;SDS011;14472;56.880;16.658;2022-07-03T12:49:12;2.15;;;0.90;;
26906;SDS011;14472;56.880;16.658;2022-07-03T12:51:53;0.80;;;0.60;;
26906;SDS011;14472;56.880;16.658;2022-07-03T12:54:22;0.93;;;0.60;;
26906;SDS011;14472;56.880;16.658;2022-07-03T12:57:08;2.03;;;0.90;;
26906;SDS011;14472;56.880;16.658;2022-07-03T13:00:07;1.85;;;0.68;;
26906;SDS011;14472;56.880;16.658;2022-07-03T13:02:42;1.30;;;0.75;;
26906;SDS011;14472;56.880;16.658;2022-07-03T13:05:21;2.55;;;0.93;;
26906;SDS011;14472;56.880;16.658;2022-07-03T13:07:51;3.25;;;0.90;;
26906;SDS011;14472;56.880;16.658;2022-07-03T13:10:22;2.47;;;1.00;;
26906;SDS011;14472;56.880;16.658;2022-07-03T13:12:52;1.55;;;0.90;;
26906;SDS011;14472;56.880;16.658;2022-07-03T13:15:19;2.28;;;0.80;;
26906;SDS011;14472;56.880;16.658;2022-07-03T13:17:50;1.73;;;1.17;;
26906;SDS011;14472;56.880;16.658;2022-07-03T13:20:18;1.48;;;0.90;;
26906;SDS011;14472;56.880;16.658;2022-07-03T13:22:52;1.67;;;0.70;;
26906;SDS011;14472;56.880;16.658;2022-07-03T13:25:19;2.80;;;1.20;;
26906;SDS011;14472;56.880;16.658;2022-07-03T13:27:46;1.48;;;0.80;;
26906;SDS011;14472;56.880;16.658;2022-07-03T13:30:15;1.75;;;0.98;;
26906;SDS011;14472;56.880;16.658;2022-07-03T13:32:42;1.73;;;1.10;;
26906;SDS011;14472;56.880;16.658;2022-07-03T13:35:08;2.50;;;1.15;;
26906;SDS011;14472;56.880;16.658;2022-07-03T13:37:34;2.08;;;0.70;;
26906;SDS011;14472;56.880;16.658;2022-07-03T13:40:00;3.53;;;0.95;;
26906;SDS011;14472;56.880;16.658;2022-07-03T13:42:27;1.73;;;0.82;;
26906;SDS011;14472;56.880;16.658;2022-07-03T13:44:53;3.60;;;1.00;;
26906;SDS011;14472;56.880;16.658;2022-07-03T13:47:19;2.35;;;0.98;;
26906;SDS011;14472;56.880;16.658;2022-07-03T13:49:45;2.35;;;0.90;;
26906;SDS011;14472;56.880;16.658;2022-07-03T13:52:10;3.08;;;0.98;;
26906;SDS011;14472;56.880;16.658;2022-07-03T13:54:36;1.98;;;0.82;;
26906;SDS011;14472;56.880;16.658;2022-07-03T13:57:02;3.22;;;1.00;;
26906;SDS011;14472;56.880;16.658;2022-07-03T13:59:29;1.70;;;0.75;;
26906;SDS011;14472;56.880;16.658;2022-07-03T14:01:58;1.70;;;1.17;;
26906;SDS011;14472;56.880;16.658;2022-07-03T14:04:24;1.85;;;0.98;;
26906;SDS011;14472;56.880;16.658;2022-07-03T14:06:50;2.53;;;0.98;;
26906;SDS011;14472;56.880;16.658;2022-07-03T14:09:16;2.30;;;1.02;;
26906;SDS011;14472;56.880;16.658;2022-07-03T14:11:42;2.08;;;0.95;;
26906;SDS011;14472;56.880;16.658;2022-07-03T14:14:08;2.58;;;1.10;;
26906;SDS011;14472;56.880;16.658;2022-07-03T14:16:34;3.38;;;1.20;;
26906;SDS011;14472;56.880;16.658;2022-07-03T14:19:00;3.60;;;1.20;;
26906;SDS011;14472;56.880;16.658;2022-07-03T14:21:31;2.20;;;1.23;;
26906;SDS011;14472;56.880;16.658;2022-07-03T14:23:57;4.03;;;2.28;;
26906;SDS011;14472;56.880;16.658;2022-07-03T14:26:23;4.43;;;1.70;;
26906;SDS011;14472;56.880;16.658;2022-07-03T14:29:07;2.47;;;1.35;;
26906;SDS011;14472;56.880;16.658;2022-07-03T14:31:52;1.27;;;0.98;;
26906;SDS011;14472;56.880;16.658;2022-07-03T14:34:37;4.97;;;1.35;;
26906;SDS011;14472;56.880;16.658;2022-07-03T14:37:03;3.08;;;1.45;;
26906;SDS011;14472;56.880;16.658;2022-07-03T14:39:29;3.35;;;1.35;;
26906;SDS011;14472;56.880;16.658;2022-07-03T14:41:55;1.67;;;1.10;;
26906;SDS011;14472;56.880;16.658;2022-07-03T14:44:21;4.63;;;1.70;;
26906;SDS011;14472;56.880;16.658;2022-07-03T14:46:52;2.78;;;1.50;;
26906;SDS011;14472;56.880;16.658;2022-07-03T14:49:18;4.65;;;1.50;;
26906;SDS011;14472;56.880;16.658;2022-07-03T14:51:44;1.80;;;1.33;;
26906;SDS011;14472;56.880;16.658;2022-07-03T14:54:11;5.43;;;1.52;;
26906;SDS011;14472;56.880;16.658;2022-07-03T14:56:40;1.83;;;1.35;;
26906;SDS011;14472;56.880;16.658;2022-07-03T14:59:39;1.98;;;1.48;;
26906;SDS011;14472;56.880;16.658;2022-07-03T15:05:31;2.80;;;1.30;;
26906;SDS011;14472;56.880;16.658;2022-07-03T15:10:53;2.90;;;1.77;;
26906;SDS011;14472;56.880;16.658;2022-07-03T15:13:19;2.42;;;1.45;;
26906;SDS011;14472;56.880;16.658;2022-07-03T15:15:46;5.78;;;1.40;;
26906;SDS011;14472;56.880;16.658;2022-07-03T15:18:15;1.58;;;1.00;;
26906;SDS011;14472;56.880;16.658;2022-07-03T15:20:43;1.88;;;0.85;;
26906;SDS011;14472;56.880;16.658;2022-07-03T15:23:09;2.67;;;1.05;;
26906;SDS011;14472;56.880;16.658;2022-07-03T15:25:36;2.47;;;1.20;;
26906;SDS011;14472;56.880;16.658;2022-07-03T15:28:03;1.38;;;0.93;;
26906;SDS011;14472;56.880;16.658;2022-07-03T15:30:33;2.05;;;1.00;;
26906;SDS011;14472;56.880;16.658;2022-07-03T15:32:58;2.72;;;1.00;;
26906;SDS011;14472;56.880;16.658;2022-07-03T15:35:25;1.25;;;0.82;;
26906;SDS011;14472;56.880;16.658;2022-07-03T15:40:47;3.42;;;0.98;;
26906;SDS011;14472;56.880;16.658;2022-07-03T15:49:09;1.63;;;0.90;;
26906;SDS011;14472;56.880;16.658;2022-07-03T16:00:15;2.25;;;0.90;;
26906;SDS011;14472;56.880;16.658;2022-07-03T16:05:18;2.13;;;0.80;;
26906;SDS011;14472;56.880;16.658;2022-07-03T16:07:48;7.55;;;0.95;;
26906;SDS011;14472;56.880;16.658;2022-07-03T16:10:18;1.92;;;0.80;;
26906;SDS011;14472;56.880;16.658;2022-07-03T16:12:45;0.85;;;0.70;;
26906;SDS011;14472;56.880;16.658;2022-07-03T16:15:13;3.75;;;1.00;;
26906;SDS011;14472;56.880;16.658;2022-07-03T16:17:38;1.98;;;0.80;;
26906;SDS011;14472;56.880;16.658;2022-07-03T16:20:05;1.23;;;0.80;;
26906;SDS011;14472;56.880;16.658;2022-07-03T16:22:33;3.17;;;1.08;;
26906;SDS011;14472;56.880;16.658;2022-07-03T16:25:01;4.22;;;1.05;;
26906;SDS011;14472;56.880;16.658;2022-07-03T16:27:30;1.85;;;0.90;;
26906;SDS011;14472;56.880;16.658;2022-07-03T16:29:56;1.48;;;0.70;;